createdAt,value
2022-08-25T00:00:58.021Z,6.65
2022-08-25T00:03:03.077Z,6.82
2022-08-25T00:05:10.657Z,6.05
2022-08-25T00:07:18.671Z,6.88
2022-08-25T00:09:29.230Z,6.75
2022-08-25T00:11:36.470Z,6.90
2022-08-25T00:13:43.930Z,7.30
2022-08-25T00:15:49.225Z,7.43
2022-08-25T00:17:54.394Z,6.60
2022-08-25T00:22:05.232Z,6.80
2022-08-25T00:24:11.060Z,7.05
2022-08-25T00:26:19.470Z,7.78
2022-08-25T00:28:24.652Z,7.28
2022-08-25T00:32:34.500Z,7.35
2022-08-25T00:34:41.322Z,7.32
2022-08-25T00:36:47.296Z,7.00
2022-08-25T00:38:52.564Z,7.00
2022-08-25T00:41:08.575Z,6.43
2022-08-25T00:43:16.076Z,6.85
2022-08-25T00:45:21.605Z,6.85
2022-08-25T00:47:26.431Z,7.40
2022-08-25T00:49:34.594Z,7.18
2022-08-25T00:51:45.751Z,7.18
2022-08-25T00:53:51.381Z,7.65
2022-08-25T00:55:56.458Z,8.52
2022-08-25T01:00:16.134Z,8.15
2022-08-25T01:02:21.761Z,8.20
2022-08-25T01:04:26.805Z,7.50
2022-08-25T01:08:37.383Z,9.70
2022-08-25T01:10:45.687Z,8.05
2022-08-25T01:12:50.928Z,8.30
2022-08-25T01:14:56.730Z,8.63
2022-08-25T01:17:04.580Z,7.78
2022-08-25T01:19:15.185Z,7.50
2022-08-25T01:21:25.432Z,9.63
2022-08-25T01:23:30.508Z,8.25
2022-08-25T01:27:47.280Z,8.77
2022-08-25T01:29:52.648Z,7.47
2022-08-25T01:32:00.353Z,7.32
2022-08-25T01:34:06.205Z,7.40
2022-08-25T01:36:11.261Z,7.97
2022-08-25T01:38:21.023Z,8.27
2022-08-25T01:40:28.076Z,7.82
2022-08-25T01:42:44.764Z,8.50
2022-08-25T01:44:50.545Z,8.60
2022-08-25T01:46:56.675Z,9.13
2022-08-25T01:49:06.585Z,8.15
2022-08-25T01:51:11.815Z,8.32
2022-08-25T01:55:26.989Z,8.30
2022-08-25T01:59:36.933Z,8.95
2022-08-25T02:01:41.865Z,8.48
2022-08-25T02:03:49.733Z,8.50
2022-08-25T02:05:56.910Z,7.15
2022-08-25T02:08:02.011Z,8.32
2022-08-25T02:12:15.590Z,9.45
2022-08-25T02:14:21.317Z,9.63
2022-08-25T02:16:30.886Z,8.35
2022-08-25T02:18:35.792Z,8.95
2022-08-25T02:20:41.067Z,9.45
2022-08-25T02:22:48.974Z,8.90
2022-08-25T02:27:10.264Z,9.18
2022-08-25T02:29:16.429Z,8.75
2022-08-25T02:31:23.665Z,9.65
2022-08-25T02:33:28.835Z,8.45
2022-08-25T02:37:39.840Z,9.20
2022-08-25T02:39:44.773Z,9.50
2022-08-25T02:41:49.635Z,10.27
2022-08-25T02:43:57.115Z,9.82
2022-08-25T02:46:02.160Z,9.82
2022-08-25T02:48:09.034Z,9.70
2022-08-25T02:50:15.079Z,9.38
2022-08-25T02:52:20.431Z,9.45
2022-08-25T02:54:26.202Z,8.85
2022-08-25T02:56:32.191Z,8.93
2022-08-25T02:58:37.163Z,8.95
2022-08-25T03:00:46.096Z,10.48
2022-08-25T03:02:51.174Z,9.80
2022-08-25T03:04:57.333Z,10.85
2022-08-25T03:07:03.870Z,10.52
2022-08-25T03:09:08.792Z,9.85
2022-08-25T03:11:14.118Z,9.40
2022-08-25T03:13:19.721Z,10.18
2022-08-25T03:15:26.120Z,10.93
2022-08-25T03:17:33.914Z,10.30
2022-08-25T03:19:40.837Z,9.23
2022-08-25T03:21:45.946Z,9.55
2022-08-25T03:26:09.285Z,9.60
2022-08-25T03:28:14.781Z,9.93
2022-08-25T03:30:19.629Z,10.25
2022-08-25T03:32:24.460Z,10.20
2022-08-25T03:34:33.127Z,10.25
2022-08-25T03:36:38.202Z,10.02
2022-08-25T03:40:48.111Z,10.30
2022-08-25T03:42:53.064Z,11.10
2022-08-25T03:44:57.939Z,10.57
2022-08-25T03:47:02.807Z,10.55
2022-08-25T03:49:10.518Z,10.15
2022-08-25T03:51:22.752Z,10.93
2022-08-25T03:53:27.631Z,10.65
2022-08-25T03:55:32.904Z,10.35
2022-08-25T03:59:43.217Z,11.40
2022-08-25T04:01:54.463Z,10.25
2022-08-25T04:04:00.299Z,10.20
2022-08-25T04:06:05.420Z,9.75
2022-08-25T04:08:13.089Z,10.15
2022-08-25T04:10:18.394Z,10.50
2022-08-25T04:12:23.489Z,9.95
2022-08-25T04:16:35.875Z,9.45
2022-08-25T04:18:41.139Z,10.02
2022-08-25T04:20:47.565Z,10.25
2022-08-25T04:22:52.341Z,9.32
2022-08-25T04:25:01.464Z,10.05
2022-08-25T04:27:06.804Z,10.35
2022-08-25T04:29:13.214Z,10.68
2022-08-25T04:31:20.124Z,10.20
2022-08-25T04:33:25.041Z,10.75
2022-08-25T04:35:29.900Z,10.02
2022-08-25T04:37:35.257Z,10.88
2022-08-25T04:39:40.714Z,10.70
2022-08-25T04:41:48.204Z,10.38
2022-08-25T04:43:53.744Z,9.77
2022-08-25T04:45:58.823Z,10.07
2022-08-25T04:48:03.779Z,9.73
2022-08-25T04:50:09.617Z,9.25
2022-08-25T04:52:14.813Z,10.15
2022-08-25T04:54:21.818Z,10.43
2022-08-25T04:56:27.719Z,9.77
2022-08-25T04:58:35.580Z,9.77
2022-08-25T05:00:41.015Z,10.65
2022-08-25T05:02:45.857Z,12.20
2022-08-25T05:04:50.776Z,10.85
2022-08-25T05:06:55.694Z,10.18
2022-08-25T05:09:01.731Z,10.30
2022-08-25T05:11:09.048Z,10.52
2022-08-25T05:13:13.985Z,11.30
2022-08-25T05:15:34.405Z,11.73
2022-08-25T05:17:39.298Z,10.93
2022-08-25T05:19:44.419Z,12.40
2022-08-25T05:23:58.340Z,12.45
2022-08-25T05:26:07.728Z,12.30
2022-08-25T05:28:13.266Z,13.63
2022-08-25T05:30:18.153Z,11.60
2022-08-25T05:32:25.566Z,11.43
2022-08-25T05:34:31.209Z,10.57
2022-08-25T05:36:36.610Z,10.43
2022-08-25T05:38:42.691Z,10.88
2022-08-25T05:40:47.609Z,10.43
2022-08-25T05:42:52.453Z,10.02
2022-08-25T05:44:58.750Z,13.27
2022-08-25T05:47:03.582Z,11.10
2022-08-25T05:49:11.022Z,11.50
2022-08-25T05:51:16.550Z,10.30
2022-08-25T05:53:21.638Z,13.30
2022-08-25T05:55:26.555Z,12.35
2022-08-25T05:57:31.440Z,12.38
2022-08-25T05:59:36.512Z,10.88
2022-08-25T06:01:53.885Z,11.35
2022-08-25T06:04:00.162Z,12.95
2022-08-25T06:06:11.906Z,12.95
2022-08-25T06:08:17.436Z,11.68
2022-08-25T06:10:22.980Z,12.05
2022-08-25T06:12:27.833Z,11.43
2022-08-25T06:14:32.737Z,12.18
2022-08-25T06:16:38.590Z,11.48
2022-08-25T06:18:43.711Z,12.95
2022-08-25T06:20:48.600Z,13.30
2022-08-25T06:22:56.957Z,13.90
2022-08-25T06:25:01.805Z,11.73
2022-08-25T06:27:08.036Z,12.02
2022-08-25T06:29:14.196Z,12.10
2022-08-25T06:31:19.569Z,12.95
2022-08-25T06:33:24.579Z,12.18
2022-08-25T06:35:29.748Z,12.35
2022-08-25T06:37:36.445Z,12.68
2022-08-25T06:39:44.278Z,11.60
2022-08-25T06:41:54.029Z,11.38
2022-08-25T06:44:05.453Z,11.60
2022-08-25T06:46:14.869Z,11.43
2022-08-25T06:48:20.001Z,11.82
2022-08-25T06:52:29.999Z,12.07
2022-08-25T06:54:34.911Z,11.00
2022-08-25T06:56:43.566Z,11.00
2022-08-25T06:58:48.734Z,10.93
2022-08-25T07:00:53.858Z,11.10
2022-08-25T07:03:01.195Z,12.68
2022-08-25T07:05:06.460Z,10.80
2022-08-25T07:07:13.064Z,13.25
2022-08-25T07:09:18.712Z,11.15
2022-08-25T07:11:23.741Z,12.02
2022-08-25T07:15:41.341Z,12.13
2022-08-25T07:17:46.408Z,12.63
2022-08-25T07:19:57.660Z,11.50
2022-08-25T07:22:02.737Z,12.63
2022-08-25T07:24:10.266Z,14.85
2022-08-25T07:26:36.677Z,15.38
2022-08-25T07:28:47.252Z,13.00
2022-08-25T07:30:53.442Z,11.30
2022-08-25T07:32:58.364Z,11.13
2022-08-25T07:35:15.592Z,10.70
2022-08-25T07:37:48.400Z,13.02
2022-08-25T07:39:49.637Z,11.23
2022-08-25T07:41:58.472Z,11.18
2022-08-25T07:44:06.344Z,10.38
2022-08-25T07:46:11.964Z,14.48
2022-08-25T07:48:19.799Z,11.15
2022-08-25T07:50:26.089Z,12.07
2022-08-25T07:52:31.081Z,10.23
2022-08-25T07:56:43.890Z,13.18
2022-08-25T07:58:50.205Z,9.20
2022-08-25T08:00:57.946Z,9.77
2022-08-25T08:03:03.989Z,8.52
2022-08-25T08:05:10.364Z,11.02
2022-08-25T08:07:15.170Z,10.52
2022-08-25T08:09:20.078Z,9.70
2022-08-25T08:11:28.034Z,11.63
2022-08-25T08:13:34.865Z,11.60
2022-08-25T08:15:45.582Z,9.73
2022-08-25T08:17:53.358Z,9.45
2022-08-25T08:19:58.469Z,10.52
2022-08-25T08:24:31.246Z,10.77
2022-08-25T08:26:57.711Z,10.13
2022-08-25T08:29:00.592Z,9.33
2022-08-25T08:31:06.167Z,8.85
2022-08-25T08:33:18.288Z,8.25
2022-08-25T08:35:24.608Z,8.90
2022-08-25T08:39:35.047Z,8.45
2022-08-25T08:42:11.131Z,6.47
2022-08-25T08:44:30.556Z,7.47
2022-08-25T08:46:43.815Z,9.73
2022-08-25T08:51:15.388Z,6.80
2022-08-25T08:53:27.561Z,6.68
2022-08-25T08:55:42.538Z,7.25
2022-08-25T08:57:52.433Z,8.00
2022-08-25T09:00:03.204Z,9.55
2022-08-25T09:02:15.821Z,6.75
2022-08-25T09:04:51.014Z,6.30
2022-08-25T09:07:01.117Z,6.25
2022-08-25T09:09:08.661Z,6.80
2022-08-25T09:11:19.076Z,6.95
2022-08-25T09:13:36.096Z,7.93
2022-08-25T09:16:03.294Z,6.57
2022-08-25T09:18:19.922Z,6.25
2022-08-25T09:20:51.823Z,7.35
2022-08-25T09:23:05.689Z,6.78
2022-08-25T09:25:29.425Z,6.85
2022-08-25T09:27:51.263Z,7.20
2022-08-25T09:30:05.216Z,6.13
2022-08-25T09:32:11.259Z,6.40
2022-08-25T09:34:23.393Z,5.95
2022-08-25T09:36:35.454Z,6.93
2022-08-25T09:38:42.893Z,6.72
2022-08-25T09:40:50.737Z,6.40
2022-08-25T09:42:59.614Z,4.90
2022-08-25T09:45:05.058Z,5.97
2022-08-25T09:47:21.969Z,5.43
2022-08-25T09:49:34.811Z,7.10
2022-08-25T09:51:43.449Z,5.32
2022-08-25T09:53:54.333Z,5.82
2022-08-25T09:56:06.047Z,6.03
2022-08-25T09:58:22.176Z,6.10
2022-08-25T10:00:31.232Z,6.43
2022-08-25T10:02:36.111Z,5.88
2022-08-25T10:04:43.454Z,6.50
2022-08-25T10:06:54.371Z,6.68
2022-08-25T10:09:03.462Z,6.05
2022-08-25T10:11:14.816Z,6.05
2022-08-25T10:13:23.806Z,5.65
2022-08-25T10:15:33.207Z,5.60
2022-08-25T10:17:38.631Z,6.07
2022-08-25T10:19:44.274Z,6.10
2022-08-25T10:22:04.329Z,6.68
2022-08-25T10:24:14.492Z,6.68
2022-08-25T10:26:33.055Z,6.85
2022-08-25T10:28:47.066Z,5.95
2022-08-25T10:31:09.619Z,6.03
2022-08-25T10:33:23.183Z,7.10
2022-08-25T10:35:33.117Z,6.82
2022-08-25T10:37:47.724Z,5.80
2022-08-25T10:40:06.257Z,5.18
2022-08-25T10:42:31.697Z,6.32
2022-08-25T10:44:54.767Z,5.53
2022-08-25T10:47:17.772Z,6.60
2022-08-25T10:49:31.295Z,7.07
2022-08-25T10:54:10.526Z,7.35
2022-08-25T10:56:21.943Z,6.45
2022-08-25T10:58:34.522Z,7.47
2022-08-25T11:00:48.335Z,7.35
2022-08-25T11:03:16.643Z,6.78
2022-08-25T11:05:29.350Z,6.00
2022-08-25T11:07:38.453Z,6.65
2022-08-25T11:09:46.813Z,5.28
2022-08-25T11:12:01.347Z,6.22
2022-08-25T11:14:11.492Z,6.38
2022-08-25T11:16:21.054Z,6.63
2022-08-25T11:18:31.951Z,5.95
2022-08-25T11:20:44.228Z,6.90
2022-08-25T11:22:57.004Z,6.20
2022-08-25T11:25:11.015Z,6.78
2022-08-25T11:27:25.177Z,5.93
2022-08-25T11:29:36.808Z,5.93
2022-08-25T11:31:48.330Z,6.82
2022-08-25T11:33:59.760Z,8.00
2022-08-25T11:36:13.445Z,6.32
2022-08-25T11:38:38.684Z,6.30
2022-08-25T11:41:11.029Z,5.80
2022-08-25T11:43:42.834Z,6.13
2022-08-25T11:45:57.822Z,6.70
2022-08-25T11:48:18.621Z,7.70
2022-08-25T11:50:31.785Z,7.55
2022-08-25T11:52:54.198Z,7.65
2022-08-25T11:54:59.238Z,7.10
2022-08-25T11:57:07.729Z,7.90
2022-08-25T11:59:15.170Z,8.02
2022-08-25T12:01:50.575Z,8.95
2022-08-25T12:04:16.133Z,7.72
2022-08-25T12:06:25.543Z,6.75
2022-08-25T12:08:57.478Z,7.03
2022-08-25T12:11:10.678Z,6.60
2022-08-25T12:13:45.037Z,7.95
2022-08-25T12:16:03.981Z,6.80
2022-08-25T12:18:15.435Z,7.18
2022-08-25T12:20:20.691Z,6.63
2022-08-25T12:22:51.663Z,6.07
2022-08-25T12:25:00.317Z,6.38
2022-08-25T12:27:09.354Z,5.88
2022-08-25T12:29:19.507Z,6.07
2022-08-25T12:31:51.106Z,6.72
2022-08-25T12:34:26.941Z,5.70
2022-08-25T12:36:34.183Z,5.40
2022-08-25T12:38:49.622Z,5.43
2022-08-25T12:41:03.527Z,5.32
2022-08-25T12:43:14.662Z,6.00
2022-08-25T12:45:42.486Z,6.97
2022-08-25T12:47:52.494Z,5.57
2022-08-25T12:50:33.338Z,5.53
2022-08-25T12:52:41.252Z,5.53
2022-08-25T12:54:51.882Z,5.20
2022-08-25T12:57:03.099Z,5.47
2022-08-25T12:59:19.601Z,4.70
2022-08-25T13:01:36.863Z,5.57
2022-08-25T13:04:09.338Z,4.97
2022-08-25T13:06:44.208Z,4.85
2022-08-25T13:09:25.858Z,5.60
2022-08-25T13:11:40.928Z,5.28
2022-08-25T13:13:53.565Z,4.50
2022-08-25T13:16:04.968Z,4.90
2022-08-25T13:18:23.649Z,5.13
2022-08-25T13:20:31.374Z,5.38
2022-08-25T13:22:40.897Z,5.75
2022-08-25T13:24:50.710Z,5.63
2022-08-25T13:26:59.452Z,7.00
2022-08-25T13:29:17.636Z,6.20
2022-08-25T13:31:28.199Z,6.05
2022-08-25T13:33:35.727Z,7.18
2022-08-25T13:36:14.052Z,6.55
2022-08-25T13:38:18.715Z,6.20
2022-08-25T13:40:29.451Z,5.95
2022-08-25T13:42:36.526Z,5.10
2022-08-25T13:44:42.131Z,5.20
2022-08-25T13:47:09.229Z,5.05
2022-08-25T13:49:14.725Z,5.93
2022-08-25T13:51:31.207Z,5.38
2022-08-25T13:53:36.912Z,6.70
2022-08-25T13:55:52.295Z,5.82
2022-08-25T13:57:57.593Z,5.72
2022-08-25T14:00:07.184Z,5.30
2022-08-25T14:02:19.519Z,6.75
2022-08-25T14:04:34.584Z,6.38
2022-08-25T14:06:44.282Z,5.65
2022-08-25T14:08:54.744Z,7.60
2022-08-25T14:11:14.627Z,6.13
2022-08-25T14:13:33.244Z,5.43
2022-08-25T14:15:38.816Z,5.28
2022-08-25T14:19:52.263Z,6.05
2022-08-25T14:24:08.486Z,5.40
2022-08-25T14:26:15.987Z,4.63
2022-08-25T14:28:23.868Z,3.90
2022-08-25T14:30:30.624Z,4.85
2022-08-25T14:32:35.710Z,5.40
2022-08-25T14:34:43.025Z,5.13
2022-08-25T14:36:48.806Z,5.43
2022-08-25T14:38:57.022Z,4.55
2022-08-25T14:41:02.069Z,4.82
2022-08-25T14:43:09.552Z,4.28
2022-08-25T14:45:15.201Z,4.25
2022-08-25T14:47:23.903Z,5.07
2022-08-25T14:49:33.836Z,4.72
2022-08-25T14:51:41.576Z,4.97
2022-08-25T14:53:48.741Z,4.55
2022-08-25T14:55:58.961Z,4.30
2022-08-25T14:58:04.245Z,4.30
2022-08-25T15:00:12.848Z,4.38
2022-08-25T15:02:20.295Z,4.82
2022-08-25T15:04:30.349Z,4.70
2022-08-25T15:06:36.935Z,3.90
2022-08-25T15:08:54.645Z,4.45
2022-08-25T15:11:02.137Z,4.93
2022-08-25T15:13:14.863Z,4.68
2022-08-25T15:15:20.679Z,4.10
2022-08-25T15:17:26.164Z,4.03
2022-08-25T15:19:31.492Z,4.20
2022-08-25T15:21:36.589Z,3.88
2022-08-25T15:23:44.585Z,4.05
2022-08-25T15:25:52.608Z,4.38
2022-08-25T15:28:00.889Z,4.20
2022-08-25T15:30:06.851Z,3.85
2022-08-25T15:32:12.579Z,3.67
2022-08-25T15:34:17.887Z,4.00
2022-08-25T15:36:28.452Z,4.18
2022-08-25T15:38:33.394Z,3.97
2022-08-25T15:40:39.924Z,3.60
2022-08-25T15:42:45.852Z,3.70
2022-08-25T15:44:56.318Z,4.78
2022-08-25T15:47:01.661Z,4.13
2022-08-25T15:49:07.874Z,4.07
2022-08-25T15:51:13.243Z,3.83
2022-08-25T15:53:18.127Z,4.82
2022-08-25T15:55:23.799Z,4.90
2022-08-25T15:57:28.905Z,4.88
2022-08-25T15:59:34.054Z,5.22
2022-08-25T16:01:43.175Z,4.88
2022-08-25T16:03:48.985Z,4.80
2022-08-25T16:05:54.301Z,4.63
2022-08-25T16:07:59.524Z,4.97
2022-08-25T16:10:05.087Z,5.32
2022-08-25T16:12:10.141Z,4.82
2022-08-25T16:14:15.200Z,4.22
2022-08-25T16:16:21.129Z,4.68
2022-08-25T16:18:28.917Z,5.35
2022-08-25T16:20:36.443Z,4.95
2022-08-25T16:22:41.496Z,5.30
2022-08-25T16:24:47.450Z,5.13
2022-08-25T16:26:52.494Z,5.05
2022-08-25T16:29:01.052Z,5.30
2022-08-25T16:31:13.743Z,4.80
2022-08-25T16:33:19.611Z,5.35
2022-08-25T16:35:28.184Z,5.20
2022-08-25T16:37:36.056Z,5.18
2022-08-25T16:39:44.286Z,4.90
2022-08-25T16:41:49.547Z,4.97
2022-08-25T16:43:58.463Z,4.53
2022-08-25T16:46:05.157Z,5.22
2022-08-25T16:48:11.410Z,4.85
2022-08-25T16:50:17.127Z,5.45
2022-08-25T16:52:37.116Z,5.28
2022-08-25T16:55:03.187Z,4.50
2022-08-25T16:57:08.112Z,5.00
2022-08-25T16:59:14.610Z,4.20
2022-08-25T17:01:19.521Z,4.72
2022-08-25T17:05:30.186Z,5.28
2022-08-25T17:07:38.218Z,5.13
2022-08-25T17:09:43.060Z,5.00
2022-08-25T17:11:56.784Z,4.70
2022-08-25T17:14:04.147Z,4.50
2022-08-25T17:16:16.779Z,4.82
2022-08-25T17:18:21.848Z,5.25
2022-08-25T17:20:29.204Z,4.63
2022-08-25T17:22:34.039Z,5.30
2022-08-25T17:24:42.681Z,4.78
2022-08-25T17:26:50.085Z,5.28
2022-08-25T17:28:59.335Z,4.70
2022-08-25T17:31:04.608Z,5.47
2022-08-25T17:33:09.584Z,5.35
2022-08-25T17:35:15.146Z,4.88
2022-08-25T17:37:20.113Z,5.25
2022-08-25T17:39:27.227Z,5.03
2022-08-25T17:41:34.837Z,5.97
2022-08-25T17:43:45.186Z,5.10
2022-08-25T17:45:51.502Z,4.55
2022-08-25T17:47:56.484Z,4.70
2022-08-25T17:50:01.750Z,4.50
2022-08-25T17:52:07.932Z,5.03
2022-08-25T17:54:13.018Z,5.07
2022-08-25T17:56:21.130Z,4.70
2022-08-25T17:58:28.657Z,4.90
2022-08-25T18:00:34.505Z,4.30
2022-08-25T18:02:39.576Z,4.72
2022-08-25T18:09:00.190Z,5.13
2022-08-25T18:11:06.155Z,4.90
2022-08-25T18:13:13.550Z,5.53
2022-08-25T18:15:22.016Z,4.50
2022-08-25T18:17:27.742Z,5.38
2022-08-25T18:19:33.961Z,5.78
2022-08-25T18:21:39.463Z,5.40
2022-08-25T18:23:45.255Z,4.78
2022-08-25T18:25:52.589Z,4.85
2022-08-25T18:28:06.633Z,4.50
2022-08-25T18:30:13.016Z,6.15
2022-08-25T18:32:21.318Z,5.90
2022-08-25T18:34:31.814Z,5.20
2022-08-25T18:36:38.523Z,4.97
2022-08-25T18:38:58.229Z,5.30
2022-08-25T18:41:05.798Z,4.50
2022-08-25T18:43:15.120Z,5.50
2022-08-25T18:45:20.388Z,5.32
2022-08-25T18:47:27.926Z,4.80
2022-08-25T18:49:32.845Z,5.50
2022-08-25T18:53:50.319Z,4.60
2022-08-25T18:55:56.348Z,4.75
2022-08-25T18:58:01.691Z,4.75
2022-08-25T19:00:09.037Z,5.47
2022-08-25T19:02:14.761Z,5.70
2022-08-25T19:04:31.533Z,6.45
2022-08-25T19:06:37.370Z,5.75
2022-08-25T19:08:42.394Z,6.38
2022-08-25T19:10:49.926Z,6.00
2022-08-25T19:12:58.461Z,6.22
2022-08-25T19:15:13.257Z,6.18
2022-08-25T19:17:18.191Z,5.70
2022-08-25T19:21:30.389Z,5.95
2022-08-25T19:23:38.126Z,5.50
2022-08-25T19:25:44.450Z,6.13
2022-08-25T19:27:53.536Z,6.65
2022-08-25T19:29:58.349Z,6.22
2022-08-25T19:32:04.358Z,5.75
2022-08-25T19:34:11.905Z,5.95
2022-08-25T19:36:23.096Z,6.35
2022-08-25T19:38:33.800Z,5.53
2022-08-25T19:40:40.710Z,6.90
2022-08-25T19:42:45.994Z,6.38
2022-08-25T19:44:52.604Z,5.85
2022-08-25T19:46:58.341Z,5.30
2022-08-25T19:49:07.348Z,5.93
2022-08-25T19:51:13.370Z,5.70
2022-08-25T19:53:20.917Z,6.68
2022-08-25T19:55:25.789Z,6.18
2022-08-25T19:59:49.610Z,6.45
2022-08-25T20:01:55.674Z,6.22
2022-08-25T20:04:03.544Z,6.20
2022-08-25T20:06:09.113Z,6.13
2022-08-25T20:08:15.953Z,5.80
2022-08-25T20:12:29.378Z,6.10
2022-08-25T20:14:36.639Z,5.63
2022-08-25T20:16:43.243Z,6.10
2022-08-25T20:18:51.122Z,6.60
2022-08-25T20:20:55.980Z,5.82
2022-08-25T20:23:22.846Z,5.65
2022-08-25T20:25:28.132Z,6.00
2022-08-25T20:27:45.226Z,7.18
2022-08-25T20:29:51.502Z,7.10
2022-08-25T20:31:56.792Z,6.00
2022-08-25T20:34:03.003Z,5.95
2022-08-25T20:36:08.501Z,6.60
2022-08-25T20:38:13.652Z,7.18
2022-08-25T20:42:33.182Z,6.18
2022-08-25T20:44:42.065Z,7.00
2022-08-25T20:46:47.479Z,7.13
2022-08-25T20:48:57.749Z,6.50
2022-08-25T20:51:05.917Z,6.00
2022-08-25T20:53:13.588Z,7.05
2022-08-25T20:55:19.232Z,6.22
2022-08-25T20:57:26.596Z,6.47
2022-08-25T20:59:35.916Z,7.18
2022-08-25T21:01:42.390Z,6.95
2022-08-25T21:03:47.628Z,8.15
2022-08-25T21:05:54.129Z,7.57
2022-08-25T21:08:01.465Z,7.45
2022-08-25T21:10:10.553Z,6.70
2022-08-25T21:12:19.343Z,7.57
2022-08-25T21:14:25.018Z,6.97
2022-08-25T21:16:34.276Z,6.78
2022-08-25T21:18:39.494Z,7.63
2022-08-25T21:20:52.687Z,6.35
2022-08-25T21:22:57.641Z,6.65
2022-08-25T21:25:02.453Z,7.85
2022-08-25T21:27:08.512Z,7.85
2022-08-25T21:29:15.142Z,8.32
2022-08-25T21:31:22.781Z,7.32
2022-08-25T21:33:31.298Z,8.65
2022-08-25T21:35:36.429Z,7.75
2022-08-25T21:37:41.242Z,9.15
2022-08-25T21:39:46.976Z,9.55
2022-08-25T21:41:52.790Z,8.98
2022-08-25T21:43:59.165Z,8.13
2022-08-25T21:46:04.706Z,8.57
2022-08-25T21:48:12.580Z,8.07
2022-08-25T21:50:20.253Z,7.93
2022-08-25T21:52:25.153Z,7.22
2022-08-25T21:54:30.019Z,7.57
2022-08-25T21:56:34.947Z,7.95
2022-08-25T21:58:41.756Z,8.20
2022-08-25T22:00:46.669Z,8.77
2022-08-25T22:02:52.096Z,7.75
2022-08-25T22:04:57.833Z,7.75
2022-08-25T22:07:06.890Z,8.20
2022-08-25T22:09:13.755Z,7.80
2022-08-25T22:11:19.464Z,6.65
2022-08-25T22:13:24.599Z,7.40
2022-08-25T22:15:29.867Z,7.25
2022-08-25T22:17:36.066Z,9.27
2022-08-25T22:19:41.606Z,9.05
2022-08-25T22:21:47.809Z,9.25
2022-08-25T22:23:56.060Z,9.18
2022-08-25T22:26:01.093Z,9.02
2022-08-25T22:30:13.778Z,9.40
2022-08-25T22:32:18.688Z,8.07
2022-08-25T22:34:30.566Z,7.90
2022-08-25T22:36:39.041Z,9.45
2022-08-25T22:38:44.591Z,9.02
2022-08-25T22:40:52.940Z,9.43
2022-08-25T22:42:57.966Z,8.93
2022-08-25T22:45:04.000Z,8.13
2022-08-25T22:47:09.434Z,8.40
2022-08-25T22:49:16.789Z,8.55
2022-08-25T22:51:25.308Z,8.77
2022-08-25T22:53:30.127Z,9.13
2022-08-25T22:57:43.048Z,9.15
2022-08-25T22:59:48.159Z,8.85
2022-08-25T23:01:57.082Z,8.75
2022-08-25T23:04:03.090Z,8.77
2022-08-25T23:06:08.054Z,8.13
2022-08-25T23:08:13.226Z,8.82
2022-08-25T23:10:20.857Z,9.18
2022-08-25T23:12:25.904Z,7.95
2022-08-25T23:14:36.828Z,8.13
2022-08-25T23:16:42.486Z,8.45
2022-08-25T23:18:47.572Z,9.20
2022-08-25T23:23:09.913Z,8.25
2022-08-25T23:27:23.922Z,7.57
2022-08-25T23:29:29.220Z,7.65
2022-08-25T23:31:36.871Z,8.02
2022-08-25T23:33:42.241Z,8.30
2022-08-25T23:35:47.463Z,8.38
2022-08-25T23:37:52.507Z,8.32
2022-08-25T23:39:58.593Z,7.78
2022-08-25T23:42:03.902Z,9.13
2022-08-25T23:44:11.906Z,9.48
2022-08-25T23:46:26.417Z,9.48
2022-08-25T23:48:34.319Z,8.98
2022-08-25T23:50:43.785Z,8.77
2022-08-25T23:52:48.771Z,8.32
2022-08-25T23:54:54.419Z,8.77
2022-08-25T23:56:59.280Z,8.18
2022-08-25T23:59:05.581Z,8.48
